createdAt,value
2022-07-27T00:00:05.444Z,13.93
2022-07-27T00:00:27.401Z,16.15
2022-07-27T00:00:50.270Z,16.40
2022-07-27T00:01:14.351Z,13.98
2022-07-27T00:01:36.799Z,14.70
2022-07-27T00:01:58.824Z,15.37
2022-07-27T00:02:20.761Z,14.82
2022-07-27T00:02:42.597Z,15.05
2022-07-27T00:03:04.387Z,13.32
2022-07-27T00:03:27.185Z,15.52
2022-07-27T00:03:49.216Z,15.48
2022-07-27T00:04:11.202Z,16.40
2022-07-27T00:04:32.955Z,16.60
2022-07-27T00:04:54.899Z,16.77
2022-07-27T00:05:16.662Z,14.25
2022-07-27T00:05:40.744Z,15.25
2022-07-27T00:06:03.525Z,14.68
2022-07-27T00:06:25.384Z,18.85
2022-07-27T00:06:47.246Z,16.75
2022-07-27T00:07:09.071Z,18.25
2022-07-27T00:07:30.971Z,20.10
2022-07-27T00:07:52.730Z,16.35
2022-07-27T00:08:14.503Z,17.45
2022-07-27T00:08:36.700Z,16.80
2022-07-27T00:08:58.986Z,16.60
2022-07-27T00:09:20.759Z,16.33
2022-07-27T00:09:42.547Z,16.00
2022-07-27T00:10:05.571Z,16.58
2022-07-27T00:10:27.869Z,17.95
2022-07-27T00:10:50.700Z,17.55
2022-07-27T00:11:12.925Z,16.77
2022-07-27T00:11:34.771Z,23.73
2022-07-27T00:11:57.020Z,18.38
2022-07-27T00:12:18.984Z,19.33
2022-07-27T00:12:40.805Z,16.48
2022-07-27T00:13:03.970Z,20.23
2022-07-27T00:13:26.183Z,17.35
2022-07-27T00:13:48.305Z,18.02
2022-07-27T00:14:10.117Z,17.38
2022-07-27T00:14:31.889Z,18.40
2022-07-27T00:14:53.636Z,21.10
2022-07-27T00:15:15.395Z,23.33
2022-07-27T00:15:37.251Z,20.52
2022-07-27T00:15:59.337Z,19.95
2022-07-27T00:16:21.491Z,18.88
2022-07-27T00:16:43.570Z,17.80
2022-07-27T00:17:05.543Z,18.45
2022-07-27T00:17:27.408Z,16.45
2022-07-27T00:17:49.404Z,22.17
2022-07-27T00:18:11.479Z,22.58
2022-07-27T00:18:33.324Z,19.02
2022-07-27T00:18:55.191Z,18.20
2022-07-27T00:19:16.973Z,19.38
2022-07-27T00:19:39.187Z,17.95
2022-07-27T00:20:01.062Z,17.80
2022-07-27T00:20:27.020Z,17.20
2022-07-27T00:20:49.332Z,18.55
2022-07-27T00:21:11.261Z,20.10
2022-07-27T00:21:33.121Z,19.02
2022-07-27T00:21:55.198Z,19.77
2022-07-27T00:22:17.281Z,17.35
2022-07-27T00:22:39.020Z,16.27
2022-07-27T00:23:00.861Z,17.10
2022-07-27T00:23:22.617Z,18.48
2022-07-27T00:23:44.454Z,18.70
2022-07-27T00:24:06.552Z,18.35
2022-07-27T00:24:28.410Z,19.20
2022-07-27T00:24:54.113Z,22.42
2022-07-27T00:25:16.390Z,18.35
2022-07-27T00:25:38.745Z,20.00
2022-07-27T00:26:00.495Z,18.88
2022-07-27T00:26:22.302Z,19.08
2022-07-27T00:26:44.067Z,17.00
2022-07-27T00:27:05.807Z,20.38
2022-07-27T00:27:27.558Z,19.75
2022-07-27T00:27:49.435Z,16.05
2022-07-27T00:28:11.294Z,18.63
2022-07-27T00:28:35.355Z,15.20
2022-07-27T00:28:57.363Z,17.55
2022-07-27T00:29:19.253Z,17.80
2022-07-27T00:29:41.767Z,16.75
2022-07-27T00:30:05.686Z,18.35
2022-07-27T00:30:27.817Z,16.60
2022-07-27T00:30:49.582Z,17.85
2022-07-27T00:31:11.462Z,16.55
2022-07-27T00:31:33.642Z,15.27
2022-07-27T00:31:55.560Z,18.08
2022-07-27T00:32:17.442Z,17.60
2022-07-27T00:32:39.251Z,19.90
2022-07-27T00:33:01.065Z,16.50
2022-07-27T00:33:22.934Z,16.27
2022-07-27T00:33:45.212Z,16.45
2022-07-27T00:34:06.965Z,16.70
2022-07-27T00:34:28.859Z,16.55
2022-07-27T00:34:50.850Z,15.30
2022-07-27T00:35:12.716Z,15.23
2022-07-27T00:35:35.931Z,15.75
2022-07-27T00:35:59.390Z,15.02
2022-07-27T00:36:21.400Z,16.67
2022-07-27T00:36:45.588Z,18.42
2022-07-27T00:37:09.864Z,16.33
2022-07-27T00:37:31.677Z,14.35
2022-07-27T00:37:53.887Z,18.15
2022-07-27T00:38:16.671Z,17.70
2022-07-27T00:38:38.611Z,14.45
2022-07-27T00:39:00.430Z,15.90
2022-07-27T00:39:22.234Z,14.10
2022-07-27T00:39:44.234Z,18.65
2022-07-27T00:40:07.581Z,18.80
2022-07-27T00:40:31.667Z,12.88
2022-07-27T00:40:53.858Z,13.48
2022-07-27T00:41:15.619Z,14.13
2022-07-27T00:41:37.393Z,15.85
2022-07-27T00:42:01.063Z,14.68
2022-07-27T00:42:27.960Z,14.50
2022-07-27T00:42:50.109Z,15.98
2022-07-27T00:43:12.113Z,14.43
2022-07-27T00:43:50.511Z,16.08
2022-07-27T00:44:12.706Z,15.48
2022-07-27T00:44:34.503Z,16.90
2022-07-27T00:44:56.284Z,13.95
2022-07-27T00:45:18.207Z,14.75
2022-07-27T00:45:41.794Z,15.50
2022-07-27T00:46:04.902Z,13.45
2022-07-27T00:46:28.569Z,15.85
2022-07-27T00:46:50.592Z,18.08
2022-07-27T00:47:12.469Z,16.90
2022-07-27T00:47:35.671Z,17.98
2022-07-27T00:47:57.534Z,16.88
2022-07-27T00:48:19.374Z,14.85
2022-07-27T00:48:41.465Z,18.08
2022-07-27T00:49:03.470Z,13.57
2022-07-27T00:49:29.383Z,14.90
2022-07-27T00:49:51.427Z,12.98
2022-07-27T00:50:13.839Z,14.35
2022-07-27T00:50:36.070Z,12.82
2022-07-27T00:50:57.868Z,14.25
2022-07-27T00:51:21.378Z,18.13
2022-07-27T00:51:43.511Z,14.13
2022-07-27T00:52:05.684Z,15.10
2022-07-27T00:52:29.069Z,16.27
2022-07-27T00:52:51.623Z,13.35
2022-07-27T00:53:14.241Z,16.40
2022-07-27T00:53:36.482Z,14.95
2022-07-27T00:53:59.477Z,14.60
2022-07-27T00:54:22.492Z,13.50
2022-07-27T00:54:45.581Z,14.82
2022-07-27T00:55:08.446Z,12.98
2022-07-27T00:55:31.955Z,14.93
2022-07-27T00:55:53.956Z,15.50
2022-07-27T00:56:18.983Z,14.27
2022-07-27T00:56:41.634Z,13.55
2022-07-27T00:57:04.388Z,14.65
2022-07-27T00:57:30.545Z,13.70
2022-07-27T00:57:59.240Z,12.50
2022-07-27T00:58:21.768Z,14.18
2022-07-27T00:58:45.409Z,14.32
2022-07-27T00:59:09.533Z,14.82
2022-07-27T00:59:33.336Z,12.77
2022-07-27T00:59:55.335Z,15.38
2022-07-27T01:00:17.870Z,13.65
2022-07-27T01:00:39.794Z,15.57
2022-07-27T01:01:01.843Z,12.15
2022-07-27T01:01:23.688Z,12.45
2022-07-27T01:01:45.881Z,12.43
2022-07-27T01:02:11.189Z,12.88
2022-07-27T01:02:34.356Z,13.60
2022-07-27T01:02:59.401Z,15.65
2022-07-27T01:03:29.703Z,11.30
2022-07-27T01:03:51.803Z,15.20
2022-07-27T01:04:13.528Z,17.25
2022-07-27T01:04:36.330Z,15.25
2022-07-27T01:04:58.516Z,14.90
2022-07-27T01:05:22.019Z,12.43
2022-07-27T01:05:45.264Z,16.30
2022-07-27T01:06:07.512Z,18.35
2022-07-27T01:06:29.427Z,14.07
2022-07-27T01:06:51.405Z,12.23
2022-07-27T01:07:13.517Z,13.80
2022-07-27T01:07:35.505Z,12.10
2022-07-27T01:07:57.858Z,10.80
2022-07-27T01:08:20.816Z,12.13
2022-07-27T01:08:43.254Z,12.63
2022-07-27T01:09:23.548Z,13.38
2022-07-27T01:10:00.569Z,11.88
2022-07-27T01:10:23.909Z,16.48
2022-07-27T01:10:47.080Z,13.98
2022-07-27T01:11:09.420Z,13.93
2022-07-27T01:11:31.250Z,13.52
2022-07-27T01:11:53.085Z,13.98
2022-07-27T01:12:19.864Z,12.68
2022-07-27T01:12:43.865Z,12.95
2022-07-27T01:13:06.012Z,11.83
2022-07-27T01:13:35.509Z,12.48
2022-07-27T01:13:57.314Z,12.48
2022-07-27T01:14:19.136Z,15.63
2022-07-27T01:14:41.463Z,13.15
2022-07-27T01:15:05.061Z,11.68
2022-07-27T01:15:27.469Z,12.90
2022-07-27T01:15:49.997Z,16.25
2022-07-27T01:16:12.507Z,12.27
2022-07-27T01:16:34.833Z,15.20
2022-07-27T01:16:57.162Z,14.65
2022-07-27T01:17:19.264Z,15.63
2022-07-27T01:17:41.128Z,13.52
2022-07-27T01:18:03.057Z,13.45
2022-07-27T01:18:29.816Z,13.73
2022-07-27T01:18:52.046Z,18.50
2022-07-27T01:19:15.476Z,16.52
2022-07-27T01:19:38.769Z,14.23
2022-07-27T01:20:00.562Z,15.35
2022-07-27T01:20:22.347Z,16.05
2022-07-27T01:20:44.334Z,15.70
2022-07-27T01:21:09.133Z,14.02
2022-07-27T01:21:35.092Z,15.15
2022-07-27T01:21:56.884Z,13.93
2022-07-27T01:22:19.489Z,12.15
2022-07-27T01:22:41.429Z,14.95
2022-07-27T01:23:03.634Z,15.18
2022-07-27T01:23:26.635Z,14.80
2022-07-27T01:23:49.438Z,12.55
2022-07-27T01:24:11.454Z,12.52
2022-07-27T01:24:34.229Z,14.02
2022-07-27T01:24:55.955Z,14.63
2022-07-27T01:25:17.860Z,15.00
2022-07-27T01:25:41.392Z,13.60
2022-07-27T01:26:06.890Z,11.73
2022-07-27T01:26:29.763Z,14.25
2022-07-27T01:26:51.663Z,14.18
2022-07-27T01:27:13.445Z,16.13
2022-07-27T01:27:35.691Z,14.05
2022-07-27T01:27:57.495Z,15.75
2022-07-27T01:28:19.364Z,15.02
2022-07-27T01:28:43.831Z,15.15
2022-07-27T01:29:05.807Z,17.27
2022-07-27T01:29:28.319Z,14.18
2022-07-27T01:29:50.150Z,16.45
2022-07-27T01:30:30.120Z,15.15
2022-07-27T01:30:52.328Z,13.18
2022-07-27T01:31:14.206Z,15.07
2022-07-27T01:31:36.072Z,14.63
2022-07-27T01:31:58.507Z,15.82
2022-07-27T01:32:20.290Z,14.13
2022-07-27T01:32:42.053Z,15.93
2022-07-27T01:33:05.546Z,14.23
2022-07-27T01:33:27.290Z,16.45
2022-07-27T01:33:49.708Z,14.80
2022-07-27T01:34:11.694Z,14.32
2022-07-27T01:34:33.762Z,15.70
2022-07-27T01:34:55.581Z,14.35
2022-07-27T01:35:17.582Z,15.57
2022-07-27T01:35:40.787Z,16.70
2022-07-27T01:36:02.568Z,20.15
2022-07-27T01:36:26.399Z,18.70
2022-07-27T01:36:48.682Z,21.95
2022-07-27T01:37:10.455Z,18.00
2022-07-27T01:37:32.240Z,15.88
2022-07-27T01:37:54.038Z,16.70
2022-07-27T01:38:17.372Z,16.47
2022-07-27T01:38:39.129Z,16.33
2022-07-27T01:39:00.902Z,15.93
2022-07-27T01:39:22.681Z,17.30
2022-07-27T01:39:44.731Z,18.10
2022-07-27T01:40:06.831Z,17.40
2022-07-27T01:40:29.141Z,18.65
2022-07-27T01:40:52.776Z,19.88
2022-07-27T01:41:14.874Z,17.25
2022-07-27T01:41:36.689Z,15.35
2022-07-27T01:41:58.832Z,15.25
2022-07-27T01:42:20.911Z,14.65
2022-07-27T01:42:42.650Z,17.85
2022-07-27T01:43:05.409Z,17.60
2022-07-27T01:43:27.237Z,15.75
2022-07-27T01:43:49.159Z,15.30
2022-07-27T01:44:11.548Z,14.85
2022-07-27T01:44:33.321Z,15.98
2022-07-27T01:44:55.121Z,16.58
2022-07-27T01:45:17.069Z,17.83
2022-07-27T01:45:39.934Z,18.17
2022-07-27T01:46:04.519Z,16.23
2022-07-27T01:46:26.571Z,16.55
2022-07-27T01:46:48.830Z,19.33
2022-07-27T01:47:14.306Z,18.83
2022-07-27T01:47:36.671Z,16.95
2022-07-27T01:47:58.621Z,16.40
2022-07-27T01:48:20.436Z,15.05
2022-07-27T01:48:42.401Z,17.95
2022-07-27T01:49:05.286Z,16.92
2022-07-27T01:49:27.279Z,21.63
2022-07-27T01:49:49.298Z,17.50
2022-07-27T01:50:11.842Z,20.42
2022-07-27T01:50:34.681Z,17.40
2022-07-27T01:50:56.838Z,17.40
2022-07-27T01:51:18.700Z,19.05
2022-07-27T01:51:40.592Z,18.63
2022-07-27T01:52:02.342Z,17.35
2022-07-27T01:52:24.083Z,16.35
2022-07-27T01:52:46.255Z,16.38
2022-07-27T01:53:10.122Z,16.98
2022-07-27T01:53:32.715Z,15.32
2022-07-27T01:53:54.798Z,17.75
2022-07-27T01:54:16.703Z,15.80
2022-07-27T01:54:38.668Z,16.02
2022-07-27T01:55:00.543Z,20.23
2022-07-27T01:55:22.633Z,17.17
2022-07-27T01:55:44.440Z,15.30
2022-07-27T01:56:10.934Z,17.45
2022-07-27T01:56:32.834Z,17.33
2022-07-27T01:56:54.590Z,17.40
2022-07-27T01:57:16.462Z,17.50
2022-07-27T01:57:39.221Z,15.95
2022-07-27T01:58:03.868Z,16.02
2022-07-27T01:58:25.629Z,17.10
2022-07-27T01:58:47.636Z,16.15
2022-07-27T01:59:16.203Z,17.05
2022-07-27T01:59:38.577Z,18.13
2022-07-27T02:00:00.360Z,17.42
2022-07-27T02:00:22.126Z,16.20
2022-07-27T02:00:44.168Z,15.07
2022-07-27T02:01:06.993Z,17.40
2022-07-27T02:01:28.838Z,16.60
2022-07-27T02:01:50.927Z,16.48
2022-07-27T02:02:15.937Z,17.25
2022-07-27T02:02:38.452Z,15.15
2022-07-27T02:03:00.560Z,14.95
2022-07-27T02:03:22.329Z,17.77
2022-07-27T02:03:44.186Z,18.23
2022-07-27T02:04:05.953Z,16.13
2022-07-27T02:04:27.701Z,16.45
2022-07-27T02:04:49.589Z,17.30
2022-07-27T02:05:12.015Z,15.60
2022-07-27T02:05:34.436Z,13.55
2022-07-27T02:05:56.930Z,18.08
2022-07-27T02:06:19.021Z,16.05
2022-07-27T02:06:40.764Z,18.13
2022-07-27T02:07:02.499Z,17.05
2022-07-27T02:07:25.818Z,16.90
2022-07-27T02:07:48.632Z,17.55
2022-07-27T02:08:10.397Z,18.38
2022-07-27T02:08:32.676Z,17.48
2022-07-27T02:08:54.561Z,18.00
2022-07-27T02:09:16.310Z,17.55
2022-07-27T02:09:41.211Z,15.27
2022-07-27T02:10:03.865Z,16.83
2022-07-27T02:10:25.706Z,17.33
2022-07-27T02:11:06.384Z,14.98
2022-07-27T02:11:54.199Z,16.50
2022-07-27T02:12:35.286Z,18.05
2022-07-27T02:12:57.126Z,16.45
2022-07-27T02:13:22.546Z,18.40
2022-07-27T02:13:47.348Z,15.95
2022-07-27T02:14:09.689Z,16.85
2022-07-27T02:14:31.640Z,19.35
2022-07-27T02:14:53.404Z,15.95
2022-07-27T02:15:19.936Z,17.67
2022-07-27T02:15:44.508Z,18.42
2022-07-27T02:16:09.708Z,19.55
2022-07-27T02:16:38.945Z,16.15
2022-07-27T02:17:00.949Z,17.20
2022-07-27T02:17:24.125Z,15.45
2022-07-27T02:17:46.891Z,15.23
2022-07-27T02:18:26.677Z,15.93
2022-07-27T02:18:50.517Z,15.35
2022-07-27T02:19:12.492Z,17.85
2022-07-27T02:19:34.681Z,16.25
2022-07-27T02:19:56.442Z,17.73
2022-07-27T02:20:21.332Z,20.13
2022-07-27T02:20:43.088Z,19.58
2022-07-27T02:21:06.234Z,16.58
2022-07-27T02:21:28.095Z,16.95
2022-07-27T02:21:49.955Z,17.15
2022-07-27T02:22:11.793Z,17.67
2022-07-27T02:22:33.963Z,17.38
2022-07-27T02:22:55.713Z,18.45
2022-07-27T02:23:17.643Z,18.27
2022-07-27T02:23:40.108Z,18.73
2022-07-27T02:24:02.121Z,16.42
2022-07-27T02:24:23.947Z,16.88
2022-07-27T02:24:46.508Z,16.00
2022-07-27T02:25:09.377Z,17.60
2022-07-27T02:25:31.531Z,16.23
2022-07-27T02:25:55.231Z,17.27
2022-07-27T02:26:19.610Z,17.35
2022-07-27T02:26:41.399Z,18.15
2022-07-27T02:27:03.550Z,16.83
2022-07-27T02:27:25.985Z,19.25
2022-07-27T02:27:48.148Z,16.58
2022-07-27T02:28:10.204Z,15.55
2022-07-27T02:28:33.993Z,15.93
2022-07-27T02:28:56.093Z,17.80
2022-07-27T02:29:18.033Z,19.15
2022-07-27T02:29:39.872Z,18.25
2022-07-27T02:30:01.848Z,16.75
2022-07-27T02:30:23.871Z,16.65
2022-07-27T02:30:46.173Z,15.77
2022-07-27T02:31:08.024Z,17.38
2022-07-27T02:31:33.015Z,18.92
2022-07-27T02:31:55.217Z,19.67
2022-07-27T02:32:17.385Z,18.40
2022-07-27T02:32:40.893Z,17.10
2022-07-27T02:33:06.424Z,18.67
2022-07-27T02:33:28.838Z,20.50
2022-07-27T02:33:50.681Z,20.00
2022-07-27T02:34:12.509Z,18.97
2022-07-27T02:34:35.020Z,18.42
2022-07-27T02:34:56.879Z,17.30
2022-07-27T02:35:20.329Z,19.30
2022-07-27T02:35:42.266Z,19.33
2022-07-27T02:36:04.401Z,20.55
2022-07-27T02:36:29.106Z,18.15
2022-07-27T02:36:50.888Z,18.63
2022-07-27T02:37:13.892Z,17.95
2022-07-27T02:37:35.716Z,16.83
2022-07-27T02:37:58.813Z,21.20
2022-07-27T02:38:20.541Z,20.08
2022-07-27T02:38:42.299Z,19.40
2022-07-27T02:39:04.516Z,18.50
2022-07-27T02:39:26.270Z,19.05
2022-07-27T02:39:48.281Z,19.75
2022-07-27T02:40:10.755Z,18.10
2022-07-27T02:40:32.528Z,16.80
2022-07-27T02:40:54.257Z,17.10
2022-07-27T02:41:16.227Z,19.70
2022-07-27T02:41:38.059Z,21.25
2022-07-27T02:41:59.818Z,20.60
2022-07-27T02:42:21.914Z,18.70
2022-07-27T02:42:44.194Z,19.05
2022-07-27T02:43:06.049Z,19.33
2022-07-27T02:43:28.080Z,20.08
2022-07-27T02:43:49.886Z,18.83
2022-07-27T02:44:14.723Z,18.83
2022-07-27T02:44:36.714Z,18.75
2022-07-27T02:44:58.538Z,17.92
2022-07-27T02:45:20.567Z,18.95
2022-07-27T02:45:42.371Z,19.90
2022-07-27T02:46:04.789Z,19.08
2022-07-27T02:46:26.745Z,21.95
2022-07-27T02:46:48.659Z,18.95
2022-07-27T02:47:10.851Z,19.67
2022-07-27T02:47:32.677Z,18.92
2022-07-27T02:47:54.576Z,19.73
2022-07-27T02:48:16.384Z,19.95
2022-07-27T02:48:38.504Z,18.65
2022-07-27T02:49:00.710Z,18.88
2022-07-27T02:49:22.560Z,19.98
2022-07-27T02:49:44.340Z,24.52
2022-07-27T02:50:09.959Z,23.70
2022-07-27T02:50:32.026Z,21.55
2022-07-27T02:50:54.143Z,19.60
2022-07-27T02:51:15.964Z,18.10
2022-07-27T02:51:39.464Z,19.45
2022-07-27T02:52:03.608Z,20.33
2022-07-27T02:52:25.404Z,17.85
2022-07-27T02:52:47.283Z,19.33
2022-07-27T02:53:09.550Z,20.77
2022-07-27T02:53:33.234Z,18.70
2022-07-27T02:53:54.995Z,21.38
2022-07-27T02:54:16.817Z,20.55
2022-07-27T02:54:38.576Z,19.17
2022-07-27T02:55:00.348Z,18.25
2022-07-27T02:55:22.225Z,19.63
2022-07-27T02:55:44.073Z,19.10
2022-07-27T02:56:06.062Z,19.30
2022-07-27T02:56:28.031Z,18.45
2022-07-27T02:56:50.379Z,17.73
2022-07-27T02:57:12.128Z,18.48
2022-07-27T02:57:36.053Z,17.92
2022-07-27T02:57:57.868Z,18.48
2022-07-27T02:58:20.345Z,16.20
2022-07-27T02:58:42.315Z,16.52
2022-07-27T02:59:04.166Z,16.67
2022-07-27T02:59:26.432Z,17.77
2022-07-27T02:59:48.196Z,19.50
2022-07-27T03:00:13.550Z,19.20
2022-07-27T03:00:35.291Z,20.45
2022-07-27T03:00:58.775Z,19.73
2022-07-27T03:01:21.076Z,19.52
2022-07-27T03:01:42.838Z,19.77
2022-07-27T03:02:04.712Z,20.10
2022-07-27T03:02:26.551Z,17.67
2022-07-27T03:02:49.853Z,17.27
2022-07-27T03:03:11.821Z,17.85
2022-07-27T03:03:36.589Z,18.85
2022-07-27T03:03:58.986Z,19.15
2022-07-27T03:04:21.069Z,18.27
2022-07-27T03:04:43.430Z,20.67
2022-07-27T03:05:07.044Z,21.00
2022-07-27T03:05:29.230Z,20.95
2022-07-27T03:05:50.969Z,20.70
2022-07-27T03:06:12.860Z,21.80
2022-07-27T03:06:35.182Z,20.05
2022-07-27T03:06:56.934Z,20.90
2022-07-27T03:07:18.788Z,20.30
2022-07-27T03:07:40.833Z,22.05
2022-07-27T03:08:04.106Z,21.03
2022-07-27T03:08:25.923Z,19.52
2022-07-27T03:08:47.985Z,22.42
2022-07-27T03:09:10.635Z,20.83
2022-07-27T03:09:33.796Z,20.10
2022-07-27T03:09:55.542Z,20.77
2022-07-27T03:10:17.537Z,23.25
2022-07-27T03:10:39.581Z,21.45
2022-07-27T03:11:02.687Z,21.27
2022-07-27T03:11:24.511Z,23.05
2022-07-27T03:11:46.277Z,21.70
2022-07-27T03:12:08.845Z,20.48
2022-07-27T03:12:31.326Z,19.27
2022-07-27T03:12:53.879Z,23.27
2022-07-27T03:13:15.788Z,20.92
2022-07-27T03:13:37.711Z,19.77
2022-07-27T03:13:59.583Z,21.30
2022-07-27T03:14:21.509Z,19.65
2022-07-27T03:14:43.264Z,20.75
2022-07-27T03:15:05.566Z,22.98
2022-07-27T03:15:27.499Z,19.45
2022-07-27T03:15:49.631Z,23.60
2022-07-27T03:16:11.733Z,21.45
2022-07-27T03:16:33.549Z,22.70
2022-07-27T03:16:55.493Z,21.75
2022-07-27T03:17:17.818Z,21.65
2022-07-27T03:17:39.675Z,19.80
2022-07-27T03:18:01.959Z,19.95
2022-07-27T03:18:25.232Z,19.63
2022-07-27T03:18:49.618Z,19.90
2022-07-27T03:19:12.441Z,20.60
2022-07-27T03:19:34.536Z,21.58
2022-07-27T03:19:56.733Z,21.88
2022-07-27T03:20:18.595Z,21.10
2022-07-27T03:20:40.395Z,19.42
2022-07-27T03:21:02.345Z,23.20
2022-07-27T03:21:25.020Z,20.83
2022-07-27T03:21:47.037Z,19.60
2022-07-27T03:22:09.548Z,20.65
2022-07-27T03:22:33.439Z,20.05
2022-07-27T03:22:55.302Z,22.33
2022-07-27T03:23:19.975Z,21.98
2022-07-27T03:23:42.041Z,23.00
2022-07-27T03:24:04.033Z,21.40
2022-07-27T03:24:26.140Z,20.38
2022-07-27T03:24:47.863Z,19.58
2022-07-27T03:25:10.188Z,20.90
2022-07-27T03:25:32.048Z,23.20
2022-07-27T03:25:53.789Z,21.90
2022-07-27T03:26:16.189Z,21.10
2022-07-27T03:26:38.138Z,25.40
2022-07-27T03:26:59.860Z,24.70
2022-07-27T03:27:21.685Z,19.42
2022-07-27T03:27:43.443Z,21.77
2022-07-27T03:28:05.903Z,24.45
2022-07-27T03:28:27.718Z,23.63
2022-07-27T03:28:49.467Z,23.45
2022-07-27T03:29:11.566Z,25.33
2022-07-27T03:29:34.211Z,22.85
2022-07-27T03:29:56.508Z,20.33
2022-07-27T03:30:18.711Z,21.80
2022-07-27T03:30:40.680Z,24.55
2022-07-27T03:31:03.841Z,25.48
2022-07-27T03:31:25.630Z,25.17
2022-07-27T03:31:47.427Z,22.23
2022-07-27T03:32:09.222Z,21.15
2022-07-27T03:32:31.883Z,21.88
2022-07-27T03:32:53.671Z,20.67
2022-07-27T03:33:15.564Z,22.55
2022-07-27T03:33:37.637Z,23.98
2022-07-27T03:34:00.818Z,22.00
2022-07-27T03:34:23.871Z,20.58
2022-07-27T03:34:45.607Z,20.52
2022-07-27T03:35:07.708Z,21.77
2022-07-27T03:35:29.656Z,20.40
2022-07-27T03:35:51.494Z,21.13
2022-07-27T03:36:13.259Z,20.05
2022-07-27T03:36:35.283Z,20.55
2022-07-27T03:36:57.129Z,21.30
2022-07-27T03:37:20.067Z,24.30
2022-07-27T03:37:42.578Z,23.60
2022-07-27T03:38:04.377Z,20.40
2022-07-27T03:38:26.413Z,22.05
2022-07-27T03:38:48.286Z,22.42
2022-07-27T03:39:10.688Z,21.38
2022-07-27T03:39:33.358Z,22.48
2022-07-27T03:39:55.186Z,23.70
2022-07-27T03:40:17.203Z,21.60
2022-07-27T03:40:40.251Z,22.13
2022-07-27T03:41:02.662Z,25.75
2022-07-27T03:41:24.429Z,24.75
2022-07-27T03:41:46.197Z,23.40
2022-07-27T03:42:08.031Z,22.05
2022-07-27T03:42:29.792Z,22.50
2022-07-27T03:42:51.537Z,28.30
2022-07-27T03:43:13.266Z,27.25
2022-07-27T03:43:35.236Z,23.30
2022-07-27T03:43:57.020Z,22.83
2022-07-27T03:44:18.773Z,22.60
2022-07-27T03:44:40.531Z,22.40
2022-07-27T03:45:02.503Z,24.17
2022-07-27T03:45:24.650Z,24.83
2022-07-27T03:45:47.756Z,27.52
2022-07-27T03:46:09.745Z,26.42
2022-07-27T03:46:31.710Z,23.33
2022-07-27T03:46:53.574Z,23.92
2022-07-27T03:47:15.480Z,23.48
2022-07-27T03:47:37.227Z,25.15
2022-07-27T03:47:58.970Z,25.85
2022-07-27T03:48:20.912Z,23.58
2022-07-27T03:48:43.079Z,22.95
2022-07-27T03:49:13.852Z,23.67
2022-07-27T03:49:37.241Z,25.77
2022-07-27T03:49:59.137Z,27.10
2022-07-27T03:50:22.514Z,22.13
2022-07-27T03:50:44.466Z,24.38
2022-07-27T03:51:06.762Z,26.13
2022-07-27T03:51:28.558Z,27.50
2022-07-27T03:51:50.541Z,21.52
2022-07-27T03:52:17.361Z,23.42
2022-07-27T03:52:39.556Z,23.60
2022-07-27T03:53:07.178Z,22.93
2022-07-27T03:53:28.976Z,24.00
2022-07-27T03:53:50.850Z,24.35
2022-07-27T03:54:12.853Z,23.90
2022-07-27T03:54:34.827Z,24.80
2022-07-27T03:54:57.303Z,24.73
2022-07-27T03:55:22.536Z,23.27
2022-07-27T03:55:44.963Z,23.60
2022-07-27T03:56:07.034Z,25.25
2022-07-27T03:56:28.846Z,28.50
2022-07-27T03:56:50.631Z,27.60
2022-07-27T03:57:12.372Z,26.23
2022-07-27T03:57:34.159Z,29.10
2022-07-27T03:57:56.188Z,24.13
2022-07-27T03:58:18.435Z,27.05
2022-07-27T03:58:40.190Z,27.08
2022-07-27T03:59:02.029Z,24.88
2022-07-27T03:59:23.838Z,27.88
2022-07-27T03:59:45.642Z,29.88
2022-07-27T04:00:11.983Z,24.55
2022-07-27T04:00:33.896Z,27.65
2022-07-27T04:00:57.316Z,23.77
2022-07-27T04:01:19.148Z,22.17
2022-07-27T04:01:41.185Z,25.42
2022-07-27T04:02:04.315Z,24.92
2022-07-27T04:02:26.244Z,23.77
2022-07-27T04:02:48.841Z,26.40
2022-07-27T04:03:10.974Z,24.52
2022-07-27T04:03:32.722Z,26.00
2022-07-27T04:03:54.580Z,28.50
2022-07-27T04:04:16.451Z,28.10
2022-07-27T04:04:38.214Z,27.05
2022-07-27T04:05:00.183Z,27.52
2022-07-27T04:05:24.528Z,27.92
2022-07-27T04:05:51.202Z,25.40
2022-07-27T04:06:13.058Z,25.00
2022-07-27T04:06:34.810Z,25.63
2022-07-27T04:06:56.811Z,26.58
2022-07-27T04:07:19.096Z,25.38
2022-07-27T04:07:41.250Z,25.58
2022-07-27T04:08:03.081Z,26.90
2022-07-27T04:08:24.883Z,25.30
2022-07-27T04:08:46.741Z,27.48
2022-07-27T04:09:10.120Z,29.23
2022-07-27T04:09:31.981Z,24.93
2022-07-27T04:09:54.101Z,26.60
2022-07-27T04:10:15.893Z,26.90
2022-07-27T04:10:39.242Z,24.55
2022-07-27T04:11:01.062Z,24.70
2022-07-27T04:11:23.706Z,24.77
2022-07-27T04:11:51.567Z,26.70
2022-07-27T04:12:13.532Z,25.50
2022-07-27T04:12:40.345Z,24.38
2022-07-27T04:13:03.570Z,26.05
2022-07-27T04:13:27.205Z,24.45
2022-07-27T04:13:50.522Z,27.95
2022-07-27T04:14:12.998Z,29.25
2022-07-27T04:14:35.044Z,29.13
2022-07-27T04:14:56.765Z,27.10
2022-07-27T04:15:21.529Z,24.73
2022-07-27T04:15:43.292Z,25.17
2022-07-27T04:16:05.338Z,28.23
2022-07-27T04:16:27.133Z,26.27
2022-07-27T04:16:49.041Z,21.58
2022-07-27T04:17:11.063Z,23.92
2022-07-27T04:17:55.652Z,24.50
2022-07-27T04:18:15.107Z,23.02
2022-07-27T04:18:36.863Z,22.52
2022-07-27T04:18:58.608Z,24.35
2022-07-27T04:19:20.411Z,26.10
2022-07-27T04:19:42.226Z,25.67
2022-07-27T04:20:04.681Z,23.27
2022-07-27T04:20:26.999Z,22.47
2022-07-27T04:20:48.769Z,23.25
2022-07-27T04:21:10.839Z,23.20
2022-07-27T04:21:33.660Z,24.55
2022-07-27T04:21:55.905Z,25.30
2022-07-27T04:22:17.861Z,23.50
2022-07-27T04:22:39.668Z,22.90
2022-07-27T04:23:01.803Z,25.65
2022-07-27T04:23:23.551Z,23.77
2022-07-27T04:23:45.500Z,22.63
2022-07-27T04:24:07.525Z,22.40
2022-07-27T04:24:29.570Z,22.67
2022-07-27T04:24:53.062Z,23.02
2022-07-27T04:25:14.822Z,23.80
2022-07-27T04:25:36.560Z,23.52
2022-07-27T04:25:59.592Z,24.02
2022-07-27T04:26:21.451Z,22.92
2022-07-27T04:26:43.218Z,24.58
2022-07-27T04:27:05.025Z,22.17
2022-07-27T04:27:26.842Z,22.52
2022-07-27T04:27:49.130Z,22.60
2022-07-27T04:28:10.959Z,23.20
2022-07-27T04:28:32.754Z,23.10
2022-07-27T04:28:54.583Z,23.92
2022-07-27T04:29:20.537Z,21.13
2022-07-27T04:29:43.142Z,19.63
2022-07-27T04:30:09.512Z,20.13
2022-07-27T04:30:32.138Z,22.00
2022-07-27T04:30:54.107Z,22.08
2022-07-27T04:31:17.163Z,20.58
2022-07-27T04:31:39.071Z,20.45
2022-07-27T04:32:02.090Z,23.25
2022-07-27T04:32:24.363Z,23.83
2022-07-27T04:32:48.481Z,22.75
2022-07-27T04:33:10.248Z,21.50
2022-07-27T04:33:32.251Z,21.35
2022-07-27T04:33:54.285Z,21.30
2022-07-27T04:34:16.128Z,22.88
2022-07-27T04:34:39.184Z,21.67
2022-07-27T04:35:00.964Z,22.65
2022-07-27T04:35:26.505Z,23.48
2022-07-27T04:35:48.664Z,21.60
2022-07-27T04:36:10.473Z,20.63
2022-07-27T04:36:32.281Z,22.20
2022-07-27T04:36:54.693Z,20.83
2022-07-27T04:37:16.496Z,21.48
2022-07-27T04:37:38.456Z,20.75
2022-07-27T04:38:00.184Z,21.83
2022-07-27T04:38:22.070Z,22.17
2022-07-27T04:38:43.953Z,23.05
2022-07-27T04:39:06.452Z,22.10
2022-07-27T04:39:28.341Z,23.65
2022-07-27T04:39:50.158Z,22.70
2022-07-27T04:40:12.605Z,23.33
2022-07-27T04:40:35.617Z,23.77
2022-07-27T04:40:58.478Z,23.85
2022-07-27T04:41:20.360Z,22.55
2022-07-27T04:41:42.438Z,22.02
2022-07-27T04:42:04.333Z,23.40
2022-07-27T04:42:26.155Z,24.48
2022-07-27T04:42:48.680Z,26.38
2022-07-27T04:43:11.627Z,24.73
2022-07-27T04:43:34.066Z,24.58
2022-07-27T04:43:56.059Z,23.45
2022-07-27T04:44:17.830Z,21.92
2022-07-27T04:44:39.822Z,22.88
2022-07-27T04:45:01.858Z,23.23
2022-07-27T04:45:24.871Z,23.63
2022-07-27T04:45:48.056Z,23.15
2022-07-27T04:46:14.994Z,23.83
2022-07-27T04:46:37.504Z,23.55
2022-07-27T04:46:59.774Z,28.10
2022-07-27T04:47:21.586Z,27.38
2022-07-27T04:47:43.355Z,27.92
2022-07-27T04:48:11.215Z,25.95
2022-07-27T04:48:36.019Z,25.83
2022-07-27T04:48:58.354Z,23.33
2022-07-27T04:49:20.476Z,25.05
2022-07-27T04:49:42.408Z,27.83
2022-07-27T04:50:05.647Z,26.13
2022-07-27T04:50:27.411Z,26.15
2022-07-27T04:50:49.182Z,25.13
2022-07-27T04:51:15.026Z,25.90
2022-07-27T04:51:36.770Z,26.15
2022-07-27T04:51:59.158Z,28.35
2022-07-27T04:52:25.499Z,31.75